Time;durP1;ratioP1;P1;durP2;ratioP2;P2;SDS_P1;SDS_P2;PMS_P1;PMS_P2;Temp;Humidity;BMP_temperature;BMP_pressure;BME280_temperature;BME280_humidity;BME280_pressure;Samples;Min_cycle;Max_cycle;Signal;HPM_P1;HPM_P2
2023/03/18 00:02:20;;;;;;;8.67;5.30;;;10.10;68.70;;;;;;4990604;28;20196;-81
2023/03/18 00:04:46;;;;;;;9.23;5.80;;;10.10;68.40;;;;;;4991415;28;20219;-80
2023/03/18 00:07:11;;;;;;;9.73;6.13;;;10.00;68.80;;;;;;4991518;28;20689;-79
2023/03/18 00:09:37;;;;;;;9.03;5.50;;;10.00;68.80;;;;;;4991059;28;20206;-79
2023/03/18 00:12:03;;;;;;;9.30;5.13;;;10.00;68.80;;;;;;4990960;28;20198;-78
2023/03/18 00:14:30;;;;;;;7.40;5.20;;;10.00;69.40;;;;;;4989374;28;20209;-78
2023/03/18 00:16:56;;;;;;;6.63;5.63;;;10.00;69.10;;;;;;4990536;28;20300;-79
2023/03/18 00:19:23;;;;;;;7.40;5.33;;;9.90;70.10;;;;;;4991828;28;20547;-77
2023/03/18 00:21:49;;;;;;;8.33;5.07;;;9.90;70.20;;;;;;4990892;28;20204;-78
2023/03/18 00:24:15;;;;;;;8.23;5.67;;;9.90;70.60;;;;;;4990714;28;20198;-78
2023/03/18 00:26:42;;;;;;;5.87;5.23;;;9.90;70.60;;;;;;4988917;28;20582;-79
2023/03/18 00:29:09;;;;;;;12.20;5.93;;;9.80;70.70;;;;;;4993281;28;20296;-76
2023/03/18 00:31:36;;;;;;;5.57;4.63;;;9.80;71.20;;;;;;4991363;28;20196;-80
2023/03/18 00:34:03;;;;;;;5.47;4.97;;;9.80;71.00;;;;;;4990267;28;20328;-78
2023/03/18 00:36:29;;;;;;;8.43;5.50;;;9.70;71.10;;;;;;4990725;28;20201;-81
2023/03/18 00:38:56;;;;;;;11.33;5.90;;;9.70;70.80;;;;;;4988749;28;20246;-78
2023/03/18 00:41:26;;;;;;;7.33;5.30;;;9.60;71.40;;;;;;4991261;28;20207;-81
2023/03/18 00:43:53;;;;;;;6.23;5.00;;;9.60;71.20;;;;;;4989333;28;20203;-82
2023/03/18 00:46:25;;;;;;;7.43;5.80;;;9.60;71.20;;;;;;4989044;28;20207;-81
2023/03/18 00:48:52;;;;;;;9.43;5.10;;;9.60;71.40;;;;;;4988677;28;20275;-80
2023/03/18 00:51:20;;;;;;;8.97;5.40;;;9.60;71.80;;;;;;4988778;28;20291;-80
2023/03/18 00:53:49;;;;;;;7.57;5.40;;;9.60;72.10;;;;;;4990337;28;20267;-83
2023/03/18 00:56:17;;;;;;;8.63;5.57;;;9.60;71.90;;;;;;4990064;28;20204;-82
2023/03/18 00:58:42;;;;;;;7.93;5.07;;;9.60;71.70;;;;;;4988196;28;20226;-78
2023/03/18 01:01:08;;;;;;;7.73;5.90;;;9.50;71.80;;;;;;4990308;28;20198;-81
2023/03/18 01:03:35;;;;;;;7.33;5.00;;;9.50;72.20;;;;;;4991208;28;20204;-80
2023/03/18 01:06:01;;;;;;;9.17;5.70;;;9.40;72.30;;;;;;4991697;28;20204;-83
2023/03/18 01:08:28;;;;;;;5.90;4.43;;;9.50;75.10;;;;;;4989270;28;20207;-80
2023/03/18 01:10:54;;;;;;;7.43;5.13;;;9.40;73.20;;;;;;4989522;28;20283;-81
2023/03/18 01:13:20;;;;;;;8.10;4.83;;;9.40;73.30;;;;;;4991233;28;20295;-80
2023/03/18 01:15:46;;;;;;;6.57;4.80;;;9.40;73.30;;;;;;4992499;28;20204;-80
2023/03/18 01:18:12;;;;;;;8.40;5.10;;;9.40;73.70;;;;;;4985329;28;20208;-81
2023/03/18 01:20:38;;;;;;;8.70;5.07;;;9.40;73.50;;;;;;4988226;28;20216;-84
2023/03/18 01:23:05;;;;;;;7.40;5.40;;;9.40;73.60;;;;;;4989158;28;20771;-81
2023/03/18 01:25:31;;;;;;;5.50;4.63;;;9.40;73.30;;;;;;4993137;28;20295;-81
2023/03/18 01:27:57;;;;;;;7.53;5.33;;;9.40;73.70;;;;;;4990646;28;20208;-91
2023/03/18 01:30:23;;;;;;;8.20;6.00;;;9.40;73.90;;;;;;4995852;28;20646;-84
2023/03/18 01:32:49;;;;;;;6.20;5.27;;;9.30;73.20;;;;;;4992019;28;20208;-85
2023/03/18 01:35:15;;;;;;;8.33;5.50;;;9.30;73.60;;;;;;4991770;28;20213;-87
2023/03/18 01:37:43;;;;;;;5.47;4.73;;;9.40;73.60;;;;;;4992630;28;20208;-82
2023/03/18 01:40:10;;;;;;;5.40;4.50;;;9.40;73.80;;;;;;4975736;28;20901;-80
2023/03/18 01:42:36;;;;;;;8.03;5.23;;;9.30;74.00;;;;;;4988631;28;20343;-80
2023/03/18 01:45:35;;;;;;;8.70;5.60;;;9.30;73.60;;;;;;4990246;28;20240;-79
2023/03/18 01:48:00;;;;;;;7.40;5.63;;;9.30;73.60;;;;;;4989352;28;20240;-83
2023/03/18 01:50:35;;;;;;;4.73;4.00;;;9.30;73.70;;;;;;4982014;28;20252;-80
2023/03/18 01:53:05;;;;;;;7.00;5.43;;;9.30;73.40;;;;;;4988900;28;20204;-79
2023/03/18 01:55:32;;;;;;;7.00;4.87;;;9.40;73.50;;;;;;4992797;28;20648;-82
2023/03/18 01:58:00;;;;;;;5.80;4.53;;;9.40;73.70;;;;;;4993609;28;20201;-81
2023/03/18 02:00:27;;;;;;;8.13;5.50;;;9.30;73.90;;;;;;4991340;28;20434;-80
2023/03/18 02:02:53;;;;;;;6.40;4.63;;;9.30;73.90;;;;;;4991495;28;20275;-81
2023/03/18 02:05:23;;;;;;;5.63;5.13;;;9.30;74.20;;;;;;4992077;28;20197;-81
2023/03/18 02:07:50;;;;;;;8.33;4.57;;;9.30;74.00;;;;;;4992147;28;20251;-81
2023/03/18 02:10:20;;;;;;;8.60;4.83;;;9.30;73.80;;;;;;4990368;28;20210;-81
2023/03/18 02:12:51;;;;;;;7.10;4.67;;;9.30;73.80;;;;;;4998898;28;20204;-85
2023/03/18 02:15:21;;;;;;;9.83;5.50;;;9.30;73.30;;;;;;4985269;28;20221;-81
2023/03/18 02:17:53;;;;;;;6.30;4.80;;;9.30;73.50;;;;;;4987710;28;20210;-81
2023/03/18 02:20:58;;;;;;;5.47;4.90;;;9.40;73.70;;;;;;4990927;28;20298;-82
2023/03/18 02:23:35;;;;;;;7.97;4.60;;;9.40;73.30;;;;;;4988017;28;20233;-82
2023/03/18 02:26:01;;;;;;;6.83;5.10;;;9.30;73.90;;;;;;4988401;28;20259;-81
2023/03/18 02:28:30;;;;;;;5.47;4.37;;;9.30;73.90;;;;;;4988521;28;20198;-78
2023/03/18 02:30:58;;;;;;;7.47;4.47;;;9.30;73.90;;;;;;4972179;28;20292;-78
2023/03/18 02:33:29;;;;;;;8.50;4.90;;;9.30;73.90;;;;;;4991753;28;20225;-77
2023/03/18 02:35:59;;;;;;;5.97;4.40;;;9.30;73.50;;;;;;4988720;28;20241;-78
2023/03/18 02:38:25;;;;;;;5.97;4.80;;;9.30;74.00;;;;;;4990441;28;20215;-77
2023/03/18 02:40:50;;;;;;;5.53;4.47;;;9.30;74.10;;;;;;4990172;28;20974;-77
2023/03/18 02:43:20;;;;;;;9.20;4.77;;;9.30;73.80;;;;;;4989011;28;20179;-86
2023/03/18 02:46:24;;;;;;;7.63;4.33;;;9.30;74.50;;;;;;4980242;28;20197;-86
2023/03/18 02:48:51;;;;;;;8.57;4.83;;;9.30;74.00;;;;;;4997896;28;20209;-85
2023/03/18 02:51:17;;;;;;;5.27;4.77;;;9.30;74.10;;;;;;4992364;28;20551;-79
2023/03/18 02:53:44;;;;;;;7.60;4.20;;;9.20;74.20;;;;;;4992486;28;20206;-81
2023/03/18 02:56:11;;;;;;;7.33;4.97;;;9.20;73.90;;;;;;4991969;28;20200;-77
2023/03/18 02:58:37;;;;;;;5.27;4.57;;;9.20;74.50;;;;;;4991313;28;20707;-80
2023/03/18 03:01:04;;;;;;;11.93;4.93;;;9.20;74.20;;;;;;4990010;28;20236;-82
2023/03/18 03:03:30;;;;;;;7.13;4.87;;;9.20;74.50;;;;;;4990668;28;20539;-85
2023/03/18 03:05:55;;;;;;;5.53;4.83;;;9.20;74.40;;;;;;4993765;28;20224;-72
2023/03/18 03:08:21;;;;;;;6.07;4.37;;;9.20;74.40;;;;;;4991246;28;20202;-74
2023/03/18 03:10:49;;;;;;;7.33;4.80;;;9.10;74.80;;;;;;4992639;28;20228;-74
2023/03/18 03:13:15;;;;;;;8.17;5.03;;;9.10;74.00;;;;;;4990182;28;20203;-73
2023/03/18 03:15:41;;;;;;;7.37;4.87;;;9.10;74.30;;;;;;4990967;28;20203;-74
2023/03/18 03:18:07;;;;;;;10.80;5.10;;;9.00;74.50;;;;;;4988325;28;20204;-73
2023/03/18 03:20:36;;;;;;;7.73;4.40;;;9.00;74.60;;;;;;4988817;28;20196;-69
2023/03/18 03:23:03;;;;;;;5.60;4.23;;;9.00;75.30;;;;;;4985465;28;20288;-71
2023/03/18 03:25:28;;;;;;;7.83;4.63;;;8.90;75.20;;;;;;4987260;28;20198;-72
2023/03/18 03:27:54;;;;;;;5.80;4.63;;;8.90;75.50;;;;;;4981847;28;20210;-72
2023/03/18 03:30:20;;;;;;;8.60;5.03;;;9.00;75.00;;;;;;4977188;28;20199;-74
2023/03/18 03:32:46;;;;;;;7.40;5.20;;;8.90;74.90;;;;;;4992305;28;20202;-74
2023/03/18 03:35:14;;;;;;;8.13;5.17;;;9.00;75.50;;;;;;4989911;28;20347;-73
2023/03/18 03:37:41;;;;;;;6.07;5.47;;;9.00;75.30;;;;;;4987049;28;20208;-72
2023/03/18 03:40:08;;;;;;;6.67;5.10;;;9.10;74.90;;;;;;4988226;28;20228;-74
2023/03/18 03:42:33;;;;;;;7.23;4.77;;;9.00;74.90;;;;;;4987733;28;20689;-75
2023/03/18 03:44:59;;;;;;;9.37;5.03;;;9.00;74.40;;;;;;4988536;28;20194;-74
2023/03/18 03:47:24;;;;;;;7.17;4.93;;;8.90;74.60;;;;;;4986499;28;20267;-75
2023/03/18 03:49:51;;;;;;;5.70;4.27;;;8.90;75.60;;;;;;4988814;28;20615;-74
2023/03/18 03:52:18;;;;;;;10.30;5.27;;;8.80;74.80;;;;;;4989585;28;20679;-74
2023/03/18 03:54:44;;;;;;;8.67;4.87;;;8.90;75.60;;;;;;4988995;28;20205;-74
2023/03/18 03:57:10;;;;;;;10.33;4.83;;;8.90;74.80;;;;;;4988575;28;20260;-74
2023/03/18 03:59:36;;;;;;;8.00;4.83;;;8.90;75.40;;;;;;4987529;28;20241;-75
2023/03/18 04:02:02;;;;;;;5.07;4.27;;;8.90;74.90;;;;;;4987865;28;20710;-74
2023/03/18 04:04:28;;;;;;;9.97;5.30;;;8.90;75.00;;;;;;4988198;28;20185;-74
2023/03/18 04:06:54;;;;;;;6.57;5.10;;;8.90;75.50;;;;;;4987876;28;20582;-74
2023/03/18 04:09:20;;;;;;;8.30;5.07;;;8.90;75.30;;;;;;4985874;28;20194;-73
2023/03/18 04:11:46;;;;;;;7.13;4.60;;;8.80;75.20;;;;;;4984219;28;20705;-73
2023/03/18 04:14:12;;;;;;;6.53;5.00;;;8.70;75.50;;;;;;4980602;28;20300;-74
2023/03/18 04:16:38;;;;;;;6.77;5.00;;;8.80;75.60;;;;;;4978252;28;20214;-73
2023/03/18 04:19:05;;;;;;;7.27;5.40;;;8.70;75.30;;;;;;4980449;28;20715;-73
2023/03/18 04:21:30;;;;;;;7.43;4.47;;;8.70;75.70;;;;;;4983527;28;20295;-73
2023/03/18 04:23:56;;;;;;;9.80;4.53;;;8.70;76.20;;;;;;4987412;28;20626;-74
2023/03/18 04:26:21;;;;;;;7.80;4.80;;;8.70;75.90;;;;;;4991885;28;20184;-74
2023/03/18 04:28:47;;;;;;;9.07;5.03;;;8.70;75.80;;;;;;4994187;28;20196;-73
2023/03/18 04:31:13;;;;;;;7.63;5.20;;;8.80;75.50;;;;;;4990909;28;20807;-74
2023/03/18 04:33:39;;;;;;;9.47;5.53;;;8.70;76.00;;;;;;4987694;28;20236;-74
2023/03/18 04:36:05;;;;;;;8.67;5.20;;;8.70;75.90;;;;;;4990031;28;20282;-74
2023/03/18 04:38:31;;;;;;;5.73;4.40;;;8.70;76.40;;;;;;4977445;28;20336;-72
2023/03/18 04:40:57;;;;;;;6.57;4.30;;;8.80;76.30;;;;;;4979380;28;20202;-73
2023/03/18 04:43:23;;;;;;;8.03;4.73;;;8.80;75.80;;;;;;4983738;28;20209;-73
2023/03/18 04:45:49;;;;;;;7.93;4.60;;;8.80;75.80;;;;;;4986028;28;20231;-75
2023/03/18 04:48:14;;;;;;;5.80;5.07;;;8.70;76.20;;;;;;4986685;28;20241;-74
2023/03/18 04:50:39;;;;;;;6.57;4.67;;;8.60;76.00;;;;;;4986911;28;20204;-75
2023/03/18 04:53:05;;;;;;;7.37;5.30;;;8.60;76.50;;;;;;4989880;28;20194;-73
2023/03/18 04:55:31;;;;;;;9.93;4.53;;;8.60;77.00;;;;;;4996345;28;20641;-74
2023/03/18 04:57:57;;;;;;;7.10;4.50;;;8.50;77.40;;;;;;4994055;28;20362;-74
2023/03/18 05:00:23;;;;;;;7.27;4.97;;;8.60;77.60;;;;;;4995819;28;20269;-73
2023/03/18 05:02:49;;;;;;;5.73;4.83;;;8.50;77.50;;;;;;4993887;28;20200;-73
2023/03/18 05:05:15;;;;;;;5.77;4.60;;;8.50;77.80;;;;;;4996007;28;20211;-73
2023/03/18 05:07:41;;;;;;;12.47;4.83;;;8.40;77.90;;;;;;4996343;28;20743;-73
2023/03/18 05:10:08;;;;;;;5.90;4.27;;;8.40;78.00;;;;;;4996254;28;20224;-72
2023/03/18 05:12:34;;;;;;;7.93;5.30;;;8.40;78.70;;;;;;4995793;28;20223;-72
2023/03/18 05:15:00;;;;;;;5.87;4.83;;;8.40;78.20;;;;;;4994571;28;20204;-72
2023/03/18 05:17:25;;;;;;;7.47;5.30;;;8.30;78.60;;;;;;4995823;28;20208;-73
2023/03/18 05:19:51;;;;;;;8.37;5.77;;;8.30;79.00;;;;;;4996555;28;20216;-71
2023/03/18 05:22:19;;;;;;;8.17;5.03;;;8.30;79.20;;;;;;4995344;28;20205;-71
2023/03/18 05:24:45;;;;;;;8.43;5.63;;;8.20;80.20;;;;;;4995148;28;20212;-71
2023/03/18 05:27:12;;;;;;;6.67;4.77;;;8.30;79.40;;;;;;4993454;28;20829;-73
2023/03/18 05:29:39;;;;;;;6.57;5.30;;;8.30;79.90;;;;;;4996061;28;20294;-73
2023/03/18 05:32:06;;;;;;;5.77;5.10;;;8.20;79.60;;;;;;4996061;28;20603;-74
2023/03/18 05:34:36;;;;;;;5.77;4.83;;;8.20;80.10;;;;;;4994853;28;20221;-73
2023/03/18 05:37:03;;;;;;;7.60;5.43;;;8.30;80.30;;;;;;4994256;28;20574;-74
2023/03/18 05:39:30;;;;;;;9.43;5.50;;;8.20;80.10;;;;;;4995472;28;20220;-75
2023/03/18 05:41:56;;;;;;;5.47;4.63;;;8.20;80.50;;;;;;4995895;28;20579;-74
2023/03/18 05:44:22;;;;;;;9.77;5.50;;;8.20;83.40;;;;;;4995965;28;20204;-75
2023/03/18 05:46:47;;;;;;;9.83;4.87;;;8.30;82.00;;;;;;4996098;28;20204;-71
2023/03/18 05:49:13;;;;;;;8.13;5.27;;;8.30;82.30;;;;;;4991702;28;20701;-73
2023/03/18 05:51:38;;;;;;;6.30;4.27;;;8.40;83.10;;;;;;4995089;28;20235;-73
2023/03/18 05:54:04;;;;;;;6.83;5.10;;;8.40;81.50;;;;;;4994580;28;20639;-72
2023/03/18 05:56:30;;;;;;;10.73;4.67;;;8.40;82.30;;;;;;4995658;28;20231;-73
2023/03/18 05:58:56;;;;;;;7.87;4.60;;;8.40;81.30;;;;;;4977881;28;20220;-72
2023/03/18 06:01:23;;;;;;;7.13;5.13;;;8.40;82.40;;;;;;4993874;28;20200;-72
2023/03/18 06:03:49;;;;;;;8.30;5.27;;;8.40;83.40;;;;;;4995747;28;20265;-72
2023/03/18 06:06:15;;;;;;;7.37;4.70;;;8.50;82.50;;;;;;4995264;28;20208;-74
2023/03/18 06:08:40;;;;;;;5.80;4.23;;;8.50;81.50;;;;;;4995673;28;20209;-75
2023/03/18 06:11:06;;;;;;;6.00;4.63;;;8.40;82.20;;;;;;4995378;28;20580;-75
2023/03/18 06:13:32;;;;;;;8.40;5.80;;;8.50;84.80;;;;;;4986382;28;20205;-75
2023/03/18 06:15:59;;;;;;;8.37;4.97;;;8.60;82.40;;;;;;4975573;28;20635;-74
2023/03/18 06:18:25;;;;;;;8.03;4.90;;;8.60;81.40;;;;;;4976069;28;20311;-75
2023/03/18 06:20:51;;;;;;;6.90;5.43;;;8.50;82.70;;;;;;4976175;28;20518;-74
2023/03/18 06:23:17;;;;;;;11.20;5.60;;;8.50;83.50;;;;;;4976432;28;20263;-75
2023/03/18 06:25:44;;;;;;;5.47;4.77;;;8.50;82.00;;;;;;4974767;28;20294;-75
2023/03/18 06:28:09;;;;;;;6.70;4.93;;;8.40;81.60;;;;;;4976225;28;20205;-75
2023/03/18 06:30:35;;;;;;;9.00;5.80;;;8.50;82.20;;;;;;4976188;28;20673;-72
2023/03/18 06:33:02;;;;;;;5.93;4.33;;;8.50;81.80;;;;;;4978516;28;20253;-73
2023/03/18 06:35:27;;;;;;;9.20;5.10;;;8.40;81.90;;;;;;4979860;28;20299;-72
2023/03/18 06:37:53;;;;;;;7.77;5.57;;;8.50;83.80;;;;;;4977835;28;20205;-72
2023/03/18 06:40:19;;;;;;;14.00;5.87;;;8.50;83.00;;;;;;4979283;28;20224;-72
2023/03/18 06:42:45;;;;;;;6.60;5.30;;;8.60;83.60;;;;;;4979389;28;20201;-71
2023/03/18 06:45:11;;;;;;;9.43;5.50;;;8.70;82.70;;;;;;4979357;28;20208;-73
2023/03/18 06:47:37;;;;;;;9.03;6.17;;;8.70;82.60;;;;;;4979686;28;20292;-74
2023/03/18 06:50:03;;;;;;;9.47;5.43;;;8.60;82.30;;;;;;4977696;28;20288;-74
2023/03/18 06:52:29;;;;;;;9.57;4.57;;;8.70;84.20;;;;;;4979735;28;20674;-73
2023/03/18 06:54:54;;;;;;;6.93;4.77;;;8.70;82.90;;;;;;4979532;28;20206;-73
2023/03/18 06:57:20;;;;;;;7.73;5.57;;;8.70;83.00;;;;;;4979444;28;20794;-75
2023/03/18 06:59:46;;;;;;;8.20;5.97;;;8.80;84.60;;;;;;4990555;28;20290;-75
2023/03/18 07:02:13;;;;;;;8.53;5.47;;;8.80;82.50;;;;;;4996818;28;20938;-76
2023/03/18 07:04:38;;;;;;;6.37;5.13;;;8.90;83.10;;;;;;4996340;28;20238;-73
2023/03/18 07:07:04;;;;;;;9.23;5.63;;;8.90;83.10;;;;;;4998611;28;20204;-72
2023/03/18 07:09:32;;;;;;;6.90;5.27;;;9.00;82.70;;;;;;4980596;28;20624;-73
2023/03/18 07:11:58;;;;;;;7.73;5.40;;;9.00;82.90;;;;;;4998284;28;20209;-73
2023/03/18 07:14:23;;;;;;;7.60;5.87;;;9.10;82.70;;;;;;4997916;28;20201;-71
2023/03/18 07:16:49;;;;;;;8.93;5.57;;;9.10;82.80;;;;;;4996414;28;20205;-73
2023/03/18 07:19:16;;;;;;;7.43;5.80;;;9.10;82.60;;;;;;4998065;28;20254;-73
2023/03/18 07:21:42;;;;;;;8.07;5.97;;;9.10;82.30;;;;;;4998282;28;20211;-74
2023/03/18 07:24:08;;;;;;;7.37;5.50;;;9.20;82.90;;;;;;4997849;28;20202;-73
2023/03/18 07:26:34;;;;;;;7.10;5.60;;;9.30;81.90;;;;;;4998141;28;20205;-74
2023/03/18 07:29:00;;;;;;;5.40;4.67;;;9.30;82.30;;;;;;4995688;28;20211;-74
2023/03/18 07:31:26;;;;;;;9.70;5.97;;;9.30;83.80;;;;;;4998215;28;20694;-73
2023/03/18 07:33:52;;;;;;;6.23;4.80;;;9.30;82.90;;;;;;4998338;28;20359;-74
2023/03/18 07:36:18;;;;;;;8.50;6.00;;;9.30;83.40;;;;;;4993367;28;20233;-74
2023/03/18 07:38:43;;;;;;;9.23;5.40;;;9.50;82.70;;;;;;4988544;28;20318;-73
2023/03/18 07:41:09;;;;;;;6.47;5.50;;;9.70;83.50;;;;;;4988381;28;20283;-74
2023/03/18 07:43:35;;;;;;;6.07;5.47;;;9.80;81.80;;;;;;4985968;28;20205;-74
2023/03/18 07:46:02;;;;;;;9.60;5.90;;;10.00;81.60;;;;;;4987775;28;20210;-74
2023/03/18 07:48:29;;;;;;;7.63;5.20;;;10.00;79.60;;;;;;4987652;28;20187;-75
2023/03/18 07:50:55;;;;;;;7.23;5.40;;;10.00;79.70;;;;;;4987699;28;20297;-75
2023/03/18 07:53:21;;;;;;;9.23;6.20;;;10.00;80.10;;;;;;4987973;28;20205;-74
2023/03/18 07:55:46;;;;;;;8.83;5.07;;;10.20;80.20;;;;;;4986313;28;20269;-73
2023/03/18 07:58:12;;;;;;;7.33;5.67;;;10.30;79.90;;;;;;4988963;28;20237;-75
2023/03/18 08:00:38;;;;;;;4.97;4.40;;;10.40;79.60;;;;;;4988448;28;20202;-74
2023/03/18 08:03:04;;;;;;;5.20;4.70;;;10.60;80.40;;;;;;4988002;28;20196;-75
2023/03/18 08:05:30;;;;;;;7.70;5.10;;;10.80;79.00;;;;;;4989753;28;20224;-74
2023/03/18 08:07:56;;;;;;;8.53;5.00;;;11.00;78.90;;;;;;4968954;28;20673;-73
2023/03/18 08:10:22;;;;;;;7.10;5.80;;;11.20;78.50;;;;;;4987799;28;20198;-72
2023/03/18 08:12:48;;;;;;;11.67;6.33;;;11.30;78.10;;;;;;4988373;28;20283;-72
2023/03/18 08:15:14;;;;;;;6.17;5.20;;;11.70;78.30;;;;;;4987416;28;20301;-73
2023/03/18 08:17:40;;;;;;;6.13;4.57;;;12.00;77.00;;;;;;4986937;28;20258;-72
2023/03/18 08:20:06;;;;;;;6.20;5.10;;;12.10;76.20;;;;;;4987600;28;20268;-72
2023/03/18 08:22:31;;;;;;;7.90;5.87;;;12.10;76.70;;;;;;4977644;28;20223;-74
2023/03/18 08:24:57;;;;;;;7.37;5.30;;;12.00;76.50;;;;;;4977681;28;20209;-74
2023/03/18 08:27:23;;;;;;;8.07;5.73;;;12.00;76.70;;;;;;4989493;28;20285;-74
2023/03/18 08:29:49;;;;;;;8.73;4.70;;;12.00;77.10;;;;;;4997242;28;20750;-74
2023/03/18 08:32:15;;;;;;;10.00;5.30;;;12.10;77.20;;;;;;4996764;28;20208;-74
2023/03/18 08:34:41;;;;;;;6.87;4.60;;;12.30;76.90;;;;;;4995284;28;20240;-74
2023/03/18 08:37:07;;;;;;;6.83;4.87;;;12.40;76.10;;;;;;4977738;28;20199;-74
2023/03/18 08:39:32;;;;;;;10.50;5.53;;;12.60;76.70;;;;;;4977046;28;20860;-74
2023/03/18 08:41:58;;;;;;;6.37;4.67;;;12.80;76.80;;;;;;4977385;28;20259;-74
2023/03/18 08:44:24;;;;;;;6.47;4.50;;;13.10;77.00;;;;;;4977531;28;20423;-72
2023/03/18 08:46:49;;;;;;;6.80;4.63;;;13.40;76.60;;;;;;4977554;28;20208;-75
2023/03/18 08:49:16;;;;;;;6.23;5.10;;;13.60;75.30;;;;;;4977811;28;20211;-74
2023/03/18 08:51:41;;;;;;;7.53;4.70;;;13.70;75.00;;;;;;4988858;28;20212;-73
2023/03/18 08:54:07;;;;;;;6.73;5.27;;;13.70;74.40;;;;;;4997094;28;20209;-75
2023/03/18 08:56:33;;;;;;;5.30;4.27;;;13.90;73.90;;;;;;4995902;28;20385;-73
2023/03/18 08:58:58;;;;;;;6.97;5.47;;;14.00;73.20;;;;;;4987110;28;20267;-72
2023/03/18 09:01:24;;;;;;;7.53;4.67;;;13.90;73.30;;;;;;4988171;28;20199;-72
2023/03/18 09:03:50;;;;;;;8.10;4.67;;;13.80;73.00;;;;;;4990394;28;20246;-69
2023/03/18 09:06:16;;;;;;;7.53;5.03;;;13.70;73.40;;;;;;4991517;28;20873;-71
2023/03/18 09:08:43;;;;;;;5.57;4.63;;;13.50;74.30;;;;;;4996324;28;20207;-72
2023/03/18 09:11:09;;;;;;;8.37;4.23;;;13.60;74.90;;;;;;4989228;28;20204;-74
2023/03/18 09:13:35;;;;;;;5.07;4.53;;;13.60;74.50;;;;;;4979646;28;20247;-74
2023/03/18 09:16:01;;;;;;;6.73;5.07;;;13.60;74.50;;;;;;4976317;28;20887;-71
2023/03/18 09:18:28;;;;;;;6.93;4.40;;;13.60;74.50;;;;;;4976260;28;20192;-72
2023/03/18 09:20:53;;;;;;;8.67;4.60;;;13.60;74.70;;;;;;4976782;28;20271;-74
2023/03/18 09:23:19;;;;;;;7.93;5.37;;;13.60;75.60;;;;;;4977111;28;20193;-73
2023/03/18 09:25:45;;;;;;;7.43;4.33;;;13.80;76.10;;;;;;4975169;28;20205;-72
2023/03/18 09:28:13;;;;;;;7.43;4.67;;;13.90;75.40;;;;;;4976655;28;20204;-74
2023/03/18 09:30:39;;;;;;;11.53;4.97;;;14.10;74.60;;;;;;4985642;28;20208;-75
2023/03/18 09:33:05;;;;;;;7.67;5.20;;;14.30;74.60;;;;;;4986898;28;20721;-73
2023/03/18 09:35:32;;;;;;;9.73;4.73;;;14.50;74.40;;;;;;4985502;28;20204;-72
2023/03/18 09:37:57;;;;;;;5.67;4.53;;;14.60;74.10;;;;;;4988377;28;20204;-72
2023/03/18 09:40:23;;;;;;;8.93;4.40;;;14.70;73.40;;;;;;4986924;28;20205;-71
2023/03/18 09:43:17;;;;;;;9.53;5.03;;;14.80;73.20;;;;;;4976385;28;20682;-73
2023/03/18 09:46:00;;;;;;;6.33;4.50;;;14.90;73.50;;;;;;4976608;28;20204;-73
2023/03/18 09:48:39;;;;;;;6.57;4.40;;;14.80;72.50;;;;;;4975637;28;20228;-72
2023/03/18 09:51:16;;;;;;;7.83;4.30;;;14.80;73.40;;;;;;4976711;28;20200;-79
2023/03/18 09:53:49;;;;;;;7.60;4.10;;;15.00;72.50;;;;;;4976771;28;20215;-81
2023/03/18 09:56:23;;;;;;;7.23;5.03;;;15.10;73.00;;;;;;4976965;28;20276;-82
2023/03/18 09:58:59;;;;;;;5.63;4.40;;;15.30;72.00;;;;;;4980883;28;20216;-81
2023/03/18 10:01:27;;;;;;;5.00;4.10;;;15.30;72.10;;;;;;4986452;28;20200;-80
2023/03/18 10:04:04;;;;;;;5.80;4.27;;;15.50;72.00;;;;;;4986841;28;20203;-82
2023/03/18 10:06:30;;;;;;;6.10;4.80;;;15.80;71.80;;;;;;4986161;28;20211;-87
2023/03/18 10:09:15;;;;;;;5.70;4.07;;;16.00;71.30;;;;;;4996459;28;20208;-69
2023/03/18 10:11:46;;;;;;;10.03;4.43;;;16.30;70.70;;;;;;4988089;28;20212;-69
2023/03/18 10:14:34;;;;;;;7.07;4.60;;;16.50;69.60;;;;;;4990020;28;20628;-69
2023/03/18 10:17:21;;;;;;;6.30;4.70;;;16.50;69.10;;;;;;4994691;28;20326;-70
2023/03/18 10:19:54;;;;;;;5.80;4.37;;;16.60;70.40;;;;;;4988031;28;20215;-69
2023/03/18 10:22:47;;;;;;;5.03;4.20;;;16.50;69.80;;;;;;4993395;28;20477;-69
2023/03/18 10:25:23;;;;;;;10.27;4.03;;;16.60;69.40;;;;;;4990734;28;20733;-71
2023/03/18 10:28:26;;;;;;;9.63;3.90;;;16.60;69.70;;;;;;4990513;28;20277;-70
2023/03/18 10:31:10;;;;;;;8.43;4.50;;;16.60;70.10;;;;;;4990119;28;20218;-69
2023/03/18 10:33:53;;;;;;;7.57;3.77;;;16.60;71.20;;;;;;4995695;28;20227;-70
2023/03/18 10:36:25;;;;;;;4.90;4.40;;;16.50;70.70;;;;;;4995842;28;20204;-69
2023/03/18 10:38:53;;;;;;;6.87;4.90;;;16.50;70.00;;;;;;4988370;28;20227;-69
2023/03/18 10:41:28;;;;;;;7.23;4.80;;;16.50;72.50;;;;;;4992803;28;20196;-71
2023/03/18 10:43:55;;;;;;;6.63;4.60;;;16.70;71.90;;;;;;4986704;28;20203;-71
2023/03/18 10:46:21;;;;;;;5.00;4.50;;;16.90;72.70;;;;;;4994886;28;20201;-73
2023/03/18 10:49:06;;;;;;;6.23;4.40;;;17.00;72.50;;;;;;4992418;28;20263;-67
2023/03/18 10:51:49;;;;;;;6.80;4.00;;;17.30;70.90;;;;;;4992291;28;20227;-69
2023/03/18 10:54:33;;;;;;;7.13;4.53;;;17.50;71.10;;;;;;4993107;28;20748;-73
2023/03/18 10:56:59;;;;;;;16.47;4.20;;;17.80;69.90;;;;;;4991414;28;20196;-71
2023/03/18 10:59:27;;;;;;;8.63;4.07;;;17.80;69.60;;;;;;4992644;28;20280;-69
2023/03/18 11:02:05;;;;;;;6.70;4.33;;;18.10;69.40;;;;;;4992537;28;20197;-70
2023/03/18 11:04:37;;;;;;;7.17;4.83;;;18.30;69.30;;;;;;4993016;28;20192;-73
2023/03/18 11:07:07;;;;;;;5.97;3.90;;;18.70;69.00;;;;;;4989932;28;20197;-72
2023/03/18 11:09:35;;;;;;;158.43;21.27;;;18.70;66.40;;;;;;4985507;28;20205;-77
2023/03/18 11:12:06;;;;;;;4.50;4.10;;;18.70;68.80;;;;;;4977668;28;20208;-68
2023/03/18 11:14:32;;;;;;;6.60;4.23;;;18.60;67.30;;;;;;4978690;28;20232;-68
2023/03/18 11:17:17;;;;;;;6.70;4.00;;;18.60;67.20;;;;;;4979099;28;20267;-69
2023/03/18 11:19:49;;;;;;;5.97;3.87;;;18.70;68.20;;;;;;4978765;28;20214;-66
2023/03/18 11:22:19;;;;;;;6.40;4.53;;;18.80;66.90;;;;;;4979432;28;20211;-66
2023/03/18 11:24:47;;;;;;;5.27;4.30;;;18.80;67.20;;;;;;4976781;28;20220;-66
2023/03/18 11:27:13;;;;;;;4.67;3.70;;;19.00;66.50;;;;;;4982516;28;20755;-66
2023/03/18 11:29:42;;;;;;;8.73;5.03;;;19.20;67.10;;;;;;4991842;28;20261;-66
2023/03/18 11:32:21;;;;;;;7.80;4.33;;;19.40;66.90;;;;;;4992197;28;20574;-66
2023/03/18 11:34:57;;;;;;;8.53;4.33;;;19.40;66.20;;;;;;4990974;28;20238;-66
2023/03/18 11:37:40;;;;;;;5.40;4.30;;;19.30;65.90;;;;;;4986403;28;20210;-66
2023/03/18 11:40:26;;;;;;;6.43;4.33;;;19.00;66.20;;;;;;4988739;28;20812;-66
2023/03/18 11:43:01;;;;;;;4.23;3.37;;;18.70;67.40;;;;;;4997763;28;20214;-66
2023/03/18 11:45:48;;;;;;;6.77;3.83;;;18.80;69.00;;;;;;4997557;28;20195;-67
2023/03/18 11:48:17;;;;;;;8.53;3.73;;;19.00;69.10;;;;;;4997354;28;20217;-65
2023/03/18 11:51:17;;;;;;;6.83;3.80;;;19.40;69.10;;;;;;4997219;28;20592;-65
2023/03/18 11:53:57;;;;;;;3.17;2.80;;;19.30;69.10;;;;;;4995421;28;20308;-67
2023/03/18 11:56:45;;;;;;;4.80;3.50;;;19.40;69.60;;;;;;4997160;28;20664;-67
2023/03/18 11:59:38;;;;;;;7.87;3.90;;;20.00;68.90;;;;;;4992132;28;20279;-66
2023/03/18 12:02:27;;;;;;;7.93;4.30;;;20.50;67.30;;;;;;4989689;28;20199;-67
2023/03/18 12:05:27;;;;;;;4.57;3.90;;;20.70;66.60;;;;;;4993066;28;20216;-67
2023/03/18 12:07:59;;;;;;;4.63;3.67;;;20.70;66.10;;;;;;4989902;28;20202;-67
2023/03/18 12:10:36;;;;;;;4.97;3.80;;;20.70;66.80;;;;;;4987943;28;20365;-67
2023/03/18 12:13:32;;;;;;;4.23;3.27;;;20.70;66.80;;;;;;4991612;28;20203;-65
2023/03/18 12:16:04;;;;;;;7.03;3.00;;;21.10;66.70;;;;;;4986410;28;20201;-67
2023/03/18 12:18:55;;;;;;;8.07;3.13;;;21.60;65.90;;;;;;4986453;28;20304;-67
2023/03/18 12:21:37;;;;;;;4.70;3.33;;;21.70;64.30;;;;;;4989475;28;20193;-76
2023/03/18 12:24:40;;;;;;;4.33;3.43;;;22.10;63.90;;;;;;4994323;28;20275;-69
2023/03/18 12:27:19;;;;;;;6.60;3.50;;;22.40;62.60;;;;;;4993988;28;20219;-68
2023/03/18 12:30:02;;;;;;;5.50;3.20;;;22.40;63.30;;;;;;4977297;28;20212;-71
2023/03/18 12:32:28;;;;;;;4.90;3.35;;;22.50;62.30;;;;;;4977339;28;20204;-71
2023/03/18 12:35:08;;;;;;;8.50;5.10;;;22.60;62.50;;;;;;4979459;28;20237;-71
2023/03/18 12:38:14;;;;;;;3.93;3.33;;;22.30;62.60;;;;;;4992181;28;20286;-69
2023/03/18 12:40:47;;;;;;;4.47;3.10;;;22.70;63.70;;;;;;4997005;28;20216;-70
2023/03/18 12:43:23;;;;;;;4.28;3.05;;;23.00;61.80;;;;;;4996583;28;20200;-70
2023/03/18 12:45:56;;;;;;;5.20;3.70;;;23.00;62.80;;;;;;4996952;28;20199;-67
2023/03/18 12:48:31;;;;;;;4.50;3.47;;;23.20;62.00;;;;;;4996752;28;20745;-67
2023/03/18 12:51:07;;;;;;;6.53;3.13;;;23.00;61.50;;;;;;4994532;28;20206;-63
2023/03/18 12:53:37;;;;;;;4.63;3.20;;;22.30;63.40;;;;;;4996582;28;20207;-66
2023/03/18 12:56:10;;;;;;;4.35;3.20;;;22.40;62.70;;;;;;4996634;28;20227;-67
2023/03/18 12:59:08;;;;;;;5.15;3.13;;;22.20;63.00;;;;;;4995917;28;20208;-68
2023/03/18 13:01:37;;;;;;;5.73;3.13;;;21.70;64.60;;;;;;4993628;28;20232;-67
2023/03/18 13:04:06;;;;;;;5.47;3.07;;;21.60;65.10;;;;;;4987069;28;20192;-68
2023/03/18 13:06:43;;;;;;;4.53;2.73;;;22.00;65.00;;;;;;4987461;28;20197;-66